Time;durP1;ratioP1;P1;durP2;ratioP2;P2;SDS_P1;SDS_P2;PMS_P1;PMS_P2;Temp;Humidity;BMP_temperature;BMP_pressure;BME280_temperature;BME280_humidity;BME280_pressure;Samples;Min_cycle;Max_cycle;Signal;HPM_P1;HPM_P2
2021/12/26 00:01:30;;;;;;;104.32;93.22;;;-3.80;87.60;;;;;;5032232;28;20054;-75
2021/12/26 00:03:58;;;;;;;103.53;92.40;;;-3.80;87.20;;;;;;5032329;28;20054;-76
2021/12/26 00:06:28;;;;;;;103.47;92.35;;;-3.80;86.90;;;;;;5033741;28;20499;-76
2021/12/26 00:08:57;;;;;;;103.55;92.47;;;-3.80;86.70;;;;;;5032307;28;20518;-75
2021/12/26 00:11:25;;;;;;;103.30;92.10;;;-3.80;86.90;;;;;;5032118;28;20060;-75
2021/12/26 00:13:53;;;;;;;103.55;92.50;;;-3.80;86.90;;;;;;5032257;28;20050;-75
2021/12/26 00:16:20;;;;;;;104.43;92.55;;;-3.80;86.50;;;;;;5033639;28;20062;-75
2021/12/26 00:18:47;;;;;;;103.50;92.35;;;-3.80;86.40;;;;;;5033508;28;20050;-75
2021/12/26 00:21:16;;;;;;;103.80;92.60;;;-3.80;86.50;;;;;;5032148;28;20042;-75
2021/12/26 00:23:44;;;;;;;103.80;92.68;;;-3.80;86.50;;;;;;5035852;28;20511;-75
2021/12/26 00:26:11;;;;;;;103.53;92.55;;;-3.80;86.30;;;;;;5036754;28;20058;-75
2021/12/26 00:28:38;;;;;;;104.75;93.35;;;-3.90;85.40;;;;;;5035635;28;20074;-75
2021/12/26 00:31:06;;;;;;;103.18;92.07;;;-3.90;85.50;;;;;;5037135;28;20057;-75
2021/12/26 00:33:33;;;;;;;103.00;91.93;;;-3.90;85.50;;;;;;5035777;28;20056;-75
2021/12/26 00:36:00;;;;;;;103.53;92.30;;;-4.00;85.30;;;;;;5019345;28;20050;-75
2021/12/26 00:38:28;;;;;;;103.07;92.03;;;-4.00;85.00;;;;;;5035063;28;20070;-75
2021/12/26 00:40:57;;;;;;;104.13;92.85;;;-4.00;85.00;;;;;;5019136;28;20053;-75
2021/12/26 00:43:24;;;;;;;103.75;92.65;;;-4.00;85.40;;;;;;5035730;28;20526;-75
2021/12/26 00:45:51;;;;;;;103.53;92.47;;;-4.00;85.90;;;;;;5019046;28;20085;-75
2021/12/26 00:48:18;;;;;;;103.73;92.63;;;-4.00;86.30;;;;;;5034919;28;20447;-75
2021/12/26 00:50:45;;;;;;;103.97;92.68;;;-4.00;85.30;;;;;;5019087;28;20046;-75
2021/12/26 00:53:14;;;;;;;103.85;92.55;;;-3.90;85.20;;;;;;5035348;28;20456;-75
2021/12/26 00:55:42;;;;;;;103.88;92.68;;;-3.90;85.00;;;;;;5035338;28;20531;-75
2021/12/26 00:58:11;;;;;;;102.47;91.55;;;-3.90;84.60;;;;;;5018590;28;20058;-75
2021/12/26 01:00:43;;;;;;;102.43;91.55;;;-4.00;84.20;;;;;;5019059;28;20045;-75
2021/12/26 01:03:12;;;;;;;103.22;92.20;;;-4.00;84.50;;;;;;5035384;28;20049;-75
2021/12/26 01:05:41;;;;;;;103.80;92.38;;;-4.00;83.60;;;;;;5036619;28;20046;-75
2021/12/26 01:08:13;;;;;;;103.32;92.13;;;-4.00;83.90;;;;;;5034587;28;20444;-75
2021/12/26 01:10:50;;;;;;;103.25;92.07;;;-4.00;84.30;;;;;;5018365;28;20057;-75
2021/12/26 01:13:25;;;;;;;103.45;92.35;;;-4.00;83.60;;;;;;5018313;28;20046;-75
2021/12/26 01:15:59;;;;;;;102.72;91.43;;;-4.00;83.80;;;;;;5051405;28;20515;-75
2021/12/26 01:18:34;;;;;;;103.95;92.75;;;-4.00;83.70;;;;;;5034241;28;20054;-75
2021/12/26 01:21:15;;;;;;;102.95;92.00;;;-4.00;83.70;;;;;;5035151;28;20049;-75
2021/12/26 01:23:43;;;;;;;103.15;92.15;;;-4.00;83.40;;;;;;5018200;28;20058;-75
2021/12/26 01:26:10;;;;;;;102.97;91.97;;;-4.10;83.10;;;;;;5018142;28;20046;-75
2021/12/26 01:28:38;;;;;;;102.93;91.78;;;-4.10;83.10;;;;;;5017815;28;20553;-75
2021/12/26 01:31:08;;;;;;;103.05;91.93;;;-4.10;82.80;;;;;;5034672;28;20459;-75
2021/12/26 01:33:41;;;;;;;103.80;92.68;;;-4.10;82.60;;;;;;5017101;28;20050;-75
2021/12/26 01:36:28;;;;;;;102.72;91.70;;;-4.10;83.00;;;;;;5018581;28;20046;-75
2021/12/26 01:39:14;;;;;;;102.28;91.32;;;-4.20;82.60;;;;;;5014345;28;20828;-75
2021/12/26 01:42:01;;;;;;;102.68;91.57;;;-4.20;83.40;;;;;;5015131;28;20054;-75
2021/12/26 01:44:45;;;;;;;102.28;91.28;;;-4.20;83.00;;;;;;5015049;28;20168;-75
2021/12/26 01:47:16;;;;;;;105.03;91.72;;;-4.10;83.50;;;;;;5014704;28;20133;-75
2021/12/26 01:49:43;;;;;;;102.25;91.30;;;-4.10;83.30;;;;;;5014940;28;20519;-75
2021/12/26 01:52:11;;;;;;;102.30;91.37;;;-4.10;83.10;;;;;;5014614;28;20564;-75
2021/12/26 01:54:44;;;;;;;102.32;91.43;;;-4.10;82.40;;;;;;5014847;28;20266;-75
2021/12/26 01:57:13;;;;;;;103.60;92.47;;;-4.10;84.30;;;;;;4997941;28;20049;-75
2021/12/26 01:59:42;;;;;;;102.18;91.18;;;-4.10;82.90;;;;;;5014554;28;20142;-75
2021/12/26 02:02:17;;;;;;;102.60;91.68;;;-4.20;82.90;;;;;;5014315;28;20054;-75
2021/12/26 02:04:45;;;;;;;103.32;92.22;;;-4.20;82.50;;;;;;5014327;28;20057;-75
2021/12/26 02:07:14;;;;;;;102.80;91.93;;;-4.20;82.40;;;;;;5015187;28;20054;-75
2021/12/26 02:09:44;;;;;;;102.72;91.68;;;-4.20;83.20;;;;;;5014167;28;20165;-75
2021/12/26 02:12:15;;;;;;;102.63;91.78;;;-4.20;82.40;;;;;;4997975;28;20054;-75
2021/12/26 02:14:43;;;;;;;102.72;91.70;;;-4.20;82.50;;;;;;5014321;28;20125;-75
2021/12/26 02:17:34;;;;;;;102.70;91.72;;;-4.30;82.60;;;;;;5018628;28;20073;-75
2021/12/26 02:20:23;;;;;;;103.57;92.53;;;-4.30;82.90;;;;;;5014165;28;20078;-75
2021/12/26 02:22:56;;;;;;;103.53;92.35;;;-4.30;82.70;;;;;;5014127;28;20046;-75
2021/12/26 02:25:32;;;;;;;102.32;91.45;;;-4.30;82.80;;;;;;5014364;28;20129;-75
2021/12/26 02:28:00;;;;;;;103.03;92.03;;;-4.30;82.90;;;;;;5013824;28;20047;-75
2021/12/26 02:30:28;;;;;;;102.63;91.43;;;-4.30;83.00;;;;;;5013919;28;20076;-75
2021/12/26 02:32:59;;;;;;;102.32;91.32;;;-4.30;82.90;;;;;;5014005;28;20132;-75
2021/12/26 02:35:27;;;;;;;103.15;91.93;;;-4.30;82.70;;;;;;5021501;28;20049;-75
2021/12/26 02:37:55;;;;;;;102.90;91.68;;;-4.30;82.80;;;;;;5033714;28;20074;-75
2021/12/26 02:40:22;;;;;;;103.28;92.30;;;-4.30;83.20;;;;;;5017239;28;20137;-75
2021/12/26 02:42:49;;;;;;;101.97;91.13;;;-4.30;82.40;;;;;;5017103;28;20054;-75
2021/12/26 02:45:17;;;;;;;102.13;91.15;;;-4.30;82.40;;;;;;5033738;28;20088;-75
2021/12/26 02:47:47;;;;;;;102.15;91.13;;;-4.30;82.60;;;;;;5033050;28;20056;-75
2021/12/26 02:50:16;;;;;;;103.00;92.05;;;-4.30;83.10;;;;;;5033540;28;20604;-75
2021/12/26 02:52:46;;;;;;;102.97;91.90;;;-4.30;82.30;;;;;;5016853;28;20595;-75
2021/12/26 02:55:15;;;;;;;102.85;91.93;;;-4.30;82.60;;;;;;5016887;28;20401;-75
2021/12/26 02:57:46;;;;;;;102.85;91.88;;;-4.30;82.90;;;;;;5033234;28;20121;-75
2021/12/26 03:00:16;;;;;;;102.28;91.45;;;-4.30;82.60;;;;;;5016401;28;20432;-75
2021/12/26 03:02:44;;;;;;;103.43;92.32;;;-4.30;82.40;;;;;;5016486;28;20073;-75
2021/12/26 03:05:12;;;;;;;102.13;91.18;;;-4.30;81.70;;;;;;5016750;28;20053;-75
2021/12/26 03:07:39;;;;;;;102.88;91.80;;;-4.40;82.00;;;;;;5034073;28;20128;-75
2021/12/26 03:10:17;;;;;;;103.07;92.05;;;-4.40;82.10;;;;;;5032718;28;20074;-75
2021/12/26 03:12:44;;;;;;;103.18;92.13;;;-4.40;82.90;;;;;;5016698;28;20057;-75
2021/12/26 03:15:11;;;;;;;102.85;91.68;;;-4.40;83.20;;;;;;5033208;28;20053;-75
2021/12/26 03:17:39;;;;;;;103.45;92.18;;;-4.40;83.60;;;;;;5033020;28;20117;-75
2021/12/26 03:20:08;;;;;;;102.78;91.68;;;-4.40;83.30;;;;;;5033466;28;20083;-75
2021/12/26 03:22:35;;;;;;;103.40;92.32;;;-4.30;83.50;;;;;;5033097;28;20072;-75
2021/12/26 03:25:03;;;;;;;103.57;92.47;;;-4.30;82.60;;;;;;5016652;28;20049;-75
2021/12/26 03:27:32;;;;;;;103.20;92.13;;;-4.30;82.30;;;;;;5015895;28;20054;-75
2021/12/26 03:29:59;;;;;;;103.00;92.05;;;-4.30;82.40;;;;;;5033974;28;20049;-75
2021/12/26 03:32:26;;;;;;;103.28;92.38;;;-4.40;81.80;;;;;;5016454;28;20057;-75
2021/12/26 03:34:53;;;;;;;103.07;91.90;;;-4.40;82.20;;;;;;5013047;28;20096;-75
2021/12/26 03:37:22;;;;;;;102.95;91.95;;;-4.40;82.30;;;;;;5014000;28;20818;-75
2021/12/26 03:39:50;;;;;;;102.90;91.82;;;-4.40;82.90;;;;;;4996861;28;20051;-75
2021/12/26 03:42:21;;;;;;;103.38;92.30;;;-4.40;83.40;;;;;;5012914;28;20051;-75
2021/12/26 03:44:50;;;;;;;102.82;92.07;;;-4.40;83.10;;;;;;5013013;28;20121;-75
2021/12/26 03:47:18;;;;;;;102.95;92.05;;;-4.40;82.40;;;;;;5013682;28;20599;-75
2021/12/26 03:49:47;;;;;;;103.03;92.07;;;-4.40;82.20;;;;;;5012870;28;20054;-76
2021/12/26 03:52:14;;;;;;;103.28;92.22;;;-4.40;83.10;;;;;;5012834;28;20137;-75
2021/12/26 03:54:41;;;;;;;103.03;92.07;;;-4.40;83.50;;;;;;5012660;28;20138;-75
2021/12/26 03:57:08;;;;;;;104.10;93.00;;;-4.30;83.00;;;;;;5011487;28;20057;-75
2021/12/26 03:59:36;;;;;;;103.30;92.30;;;-4.30;83.10;;;;;;5012877;28;20132;-75
2021/12/26 04:02:05;;;;;;;102.85;91.65;;;-4.30;83.80;;;;;;5012762;28;20062;-75
2021/12/26 04:04:32;;;;;;;102.70;91.63;;;-4.30;83.00;;;;;;5012806;28;20070;-75
2021/12/26 04:06:59;;;;;;;104.00;93.03;;;-4.30;82.90;;;;;;5012446;28;20053;-75
2021/12/26 04:09:26;;;;;;;102.83;91.73;;;-4.30;82.70;;;;;;5011826;28;20141;-75
2021/12/26 04:11:54;;;;;;;103.72;92.30;;;-4.30;82.30;;;;;;5013143;28;20052;-75
2021/12/26 04:14:22;;;;;;;103.20;92.10;;;-4.30;83.20;;;;;;5014096;28;20137;-75
2021/12/26 04:16:49;;;;;;;104.83;93.73;;;-4.30;83.40;;;;;;5012185;28;20093;-75
2021/12/26 04:19:19;;;;;;;103.00;91.95;;;-4.30;83.30;;;;;;4995700;28;20065;-75
2021/12/26 04:21:46;;;;;;;102.82;91.93;;;-4.30;82.80;;;;;;4995794;28;20054;-75
2021/12/26 04:24:13;;;;;;;103.67;92.67;;;-4.30;82.60;;;;;;5012158;28;20049;-75
2021/12/26 04:26:41;;;;;;;102.97;91.93;;;-4.30;82.80;;;;;;5012327;28;20050;-75
2021/12/26 04:29:08;;;;;;;103.17;92.23;;;-4.30;82.60;;;;;;4995690;28;20555;-75
2021/12/26 04:31:36;;;;;;;101.97;91.25;;;-4.30;82.30;;;;;;4995715;28;20250;-75
2021/12/26 04:34:03;;;;;;;103.47;92.57;;;-4.40;82.00;;;;;;5012216;28;20072;-75
2021/12/26 04:36:31;;;;;;;102.20;91.30;;;-4.40;82.00;;;;;;5029478;28;20050;-75
2021/12/26 04:39:00;;;;;;;101.63;90.82;;;-4.40;82.00;;;;;;5034231;28;20781;-75
2021/12/26 04:41:27;;;;;;;102.63;91.53;;;-4.50;82.20;;;;;;5015486;28;20054;-75
2021/12/26 04:44:17;;;;;;;102.60;91.70;;;-4.40;82.60;;;;;;5029564;28;20603;-75
2021/12/26 04:47:13;;;;;;;103.80;92.55;;;-4.40;82.30;;;;;;4995788;28;20547;-75
2021/12/26 04:49:40;;;;;;;102.60;91.60;;;-4.50;81.80;;;;;;5015365;28;20050;-75
2021/12/26 04:52:09;;;;;;;102.25;91.25;;;-4.50;81.60;;;;;;5015561;28;20050;-75
2021/12/26 04:54:37;;;;;;;103.53;92.43;;;-4.50;82.20;;;;;;5032181;28;20042;-75
2021/12/26 04:57:04;;;;;;;103.80;92.72;;;-4.50;82.40;;;;;;5015133;28;20073;-75
2021/12/26 04:59:32;;;;;;;103.05;91.82;;;-4.60;82.50;;;;;;5015343;28;20488;-75
2021/12/26 05:02:00;;;;;;;101.47;90.78;;;-4.60;82.00;;;;;;5015003;28;20061;-75
2021/12/26 05:04:27;;;;;;;103.00;92.00;;;-4.60;82.40;;;;;;5015180;28;20077;-75
2021/12/26 05:06:54;;;;;;;103.45;92.45;;;-4.60;82.00;;;;;;5031551;28;20133;-75
2021/12/26 05:09:23;;;;;;;103.00;91.83;;;-4.60;82.40;;;;;;5035269;28;20174;-75
2021/12/26 05:11:50;;;;;;;102.88;92.00;;;-4.50;82.50;;;;;;5018327;28;20233;-75
2021/12/26 05:14:17;;;;;;;103.60;92.30;;;-4.60;82.10;;;;;;5035350;28;20076;-75
2021/12/26 05:16:44;;;;;;;102.55;91.60;;;-4.60;81.60;;;;;;5018574;28;20161;-75
2021/12/26 05:19:12;;;;;;;103.68;92.50;;;-4.60;82.00;;;;;;5034871;28;20052;-75
2021/12/26 05:21:39;;;;;;;102.30;91.30;;;-4.60;82.20;;;;;;5018526;28;20057;-75
2021/12/26 05:24:07;;;;;;;102.40;91.57;;;-4.60;82.40;;;;;;5035062;28;20080;-75
2021/12/26 05:26:35;;;;;;;102.95;91.75;;;-4.60;82.70;;;;;;5034714;28;20141;-75
2021/12/26 05:29:03;;;;;;;103.05;92.10;;;-4.60;82.30;;;;;;5018244;28;20137;-75
2021/12/26 05:31:30;;;;;;;102.43;91.57;;;-4.60;81.80;;;;;;5034710;28;20045;-75
2021/12/26 05:33:57;;;;;;;102.97;92.00;;;-4.60;81.80;;;;;;5035819;28;20053;-75
2021/12/26 05:36:25;;;;;;;103.40;92.30;;;-4.60;81.80;;;;;;5001983;28;20258;-75
2021/12/26 05:38:55;;;;;;;104.00;92.70;;;-4.60;82.60;;;;;;4994055;28;20058;-75
2021/12/26 05:41:22;;;;;;;103.47;92.38;;;-4.50;82.20;;;;;;4998020;28;20047;-75
2021/12/26 05:44:06;;;;;;;103.47;92.32;;;-4.50;82.20;;;;;;5013134;28;20535;-75
2021/12/26 05:46:33;;;;;;;103.65;92.60;;;-4.50;81.70;;;;;;4997953;28;20898;-75
2021/12/26 05:49:00;;;;;;;103.43;92.30;;;-4.50;82.80;;;;;;4997941;28;20050;-75
2021/12/26 05:51:33;;;;;;;102.97;92.00;;;-4.50;82.20;;;;;;4998123;28;20086;-75
2021/12/26 05:54:25;;;;;;;102.88;91.88;;;-4.40;82.70;;;;;;5014612;28;20046;-75
2021/12/26 05:56:52;;;;;;;83.97;75.10;;;-4.50;81.60;;;;;;4997826;28;20081;-75
2021/12/26 05:59:22;;;;;;;102.78;91.93;;;-4.50;81.60;;;;;;5014335;28;20073;-75
2021/12/26 06:01:49;;;;;;;103.68;92.30;;;-4.50;81.10;;;;;;5014189;28;20133;-75
2021/12/26 06:04:17;;;;;;;102.63;91.63;;;-4.50;81.60;;;;;;4998233;28;20046;-75
2021/12/26 06:06:44;;;;;;;101.88;91.18;;;-4.50;81.20;;;;;;5014193;28;20050;-75
2021/12/26 06:09:14;;;;;;;102.65;91.85;;;-4.50;81.00;;;;;;4997326;28;20051;-75
2021/12/26 06:11:43;;;;;;;102.45;91.57;;;-4.60;81.80;;;;;;4997831;28;20096;-75
2021/12/26 06:14:11;;;;;;;103.00;91.90;;;-4.60;82.10;;;;;;4997811;28;20051;-75
2021/12/26 06:16:39;;;;;;;;;;;-4.50;81.90;;;;;;4998271;28;20104;-75
2021/12/26 06:19:13;;;;;;;102.18;90.93;;;-4.50;81.40;;;;;;4997550;28;19929;-75
2021/12/26 06:22:02;;;;;;;102.40;91.40;;;-4.50;82.00;;;;;;5013304;28;20058;-75
2021/12/26 06:24:53;;;;;;;101.78;90.82;;;-4.50;81.80;;;;;;5014310;28;20057;-75
2021/12/26 06:27:27;;;;;;;103.13;92.05;;;-4.50;82.10;;;;;;4997555;28;20050;-75
2021/12/26 06:30:23;;;;;;;102.35;91.40;;;-4.50;81.30;;;;;;5012942;28;20054;-75
2021/12/26 06:33:10;;;;;;;102.30;91.38;;;-4.50;82.10;;;;;;5015605;28;20172;-75
2021/12/26 06:35:56;;;;;;;102.32;91.25;;;-4.50;81.70;;;;;;5026939;28;20053;-75
2021/12/26 06:38:34;;;;;;;103.03;91.97;;;-4.50;81.40;;;;;;5033262;28;20049;-75
2021/12/26 06:41:19;;;;;;;101.67;90.67;;;-4.50;81.80;;;;;;5034856;28;20113;-72
2021/12/26 06:44:12;;;;;;;101.40;90.60;;;-4.50;81.40;;;;;;5024097;28;20057;-72
2021/12/26 06:46:58;;;;;;;102.13;91.07;;;-4.60;81.20;;;;;;5033303;28;20476;-73
2021/12/26 06:49:35;;;;;;;101.25;90.63;;;-4.60;81.50;;;;;;5016692;28;20176;-72
2021/12/26 06:52:05;;;;;;;101.75;90.97;;;-4.60;82.10;;;;;;5017099;28;20074;-72
2021/12/26 06:54:33;;;;;;;102.72;91.82;;;-4.60;81.90;;;;;;5033424;28;20045;-73
2021/12/26 06:57:00;;;;;;;103.25;92.25;;;-4.50;81.80;;;;;;5016757;28;20543;-72
2021/12/26 06:59:27;;;;;;;102.63;91.50;;;-4.60;81.80;;;;;;5016932;28;20050;-72
2021/12/26 07:01:55;;;;;;;;;;;-4.60;81.70;;;;;;5017782;28;20068;-73
2021/12/26 07:04:26;;;;;;;100.88;90.05;;;-4.60;82.70;;;;;;5033720;28;19932;-72
2021/12/26 07:06:54;;;;;;;102.65;91.63;;;-4.60;82.30;;;;;;5016869;28;20054;-72
2021/12/26 07:09:26;;;;;;;101.95;91.22;;;-4.60;82.30;;;;;;5033195;28;20443;-72
2021/12/26 07:11:54;;;;;;;101.90;91.00;;;-4.60;82.50;;;;;;5016830;28;20236;-72
2021/12/26 07:14:36;;;;;;;102.80;91.80;;;-4.60;82.40;;;;;;5016721;28;20045;-73
2021/12/26 07:17:04;;;;;;;103.50;92.65;;;-4.60;82.70;;;;;;5016247;28;20050;-72
2021/12/26 07:19:31;;;;;;;102.32;91.50;;;-4.60;82.90;;;;;;5033120;28;20073;-72
2021/12/26 07:22:09;;;;;;;103.70;92.57;;;-4.60;82.50;;;;;;5016111;28;20112;-72
2021/12/26 07:24:36;;;;;;;103.28;92.30;;;-4.60;82.50;;;;;;5016460;28;20069;-72
2021/12/26 07:27:05;;;;;;;103.57;92.72;;;-4.60;82.30;;;;;;5015956;28;20058;-72
2021/12/26 07:30:03;;;;;;;102.85;91.85;;;-4.60;82.60;;;;;;5032068;28;20104;-72
2021/12/26 07:32:35;;;;;;;102.15;91.13;;;-4.60;82.60;;;;;;5031911;28;20050;-72
2021/12/26 07:35:03;;;;;;;103.90;92.80;;;-4.60;82.80;;;;;;5027937;28;20132;-72
2021/12/26 07:37:31;;;;;;;103.88;92.57;;;-4.60;82.80;;;;;;4995293;28;20046;-73
2021/12/26 07:39:59;;;;;;;103.45;92.45;;;-4.60;82.80;;;;;;4996297;28;20496;-73
2021/12/26 07:42:28;;;;;;;104.88;93.85;;;-4.60;83.10;;;;;;5013245;28;20050;-73
2021/12/26 07:45:14;;;;;;;103.00;91.80;;;-4.60;82.50;;;;;;5009679;28;20050;-73
2021/12/26 07:47:47;;;;;;;102.97;92.07;;;-4.60;82.50;;;;;;4996297;28;20057;-73
2021/12/26 07:50:14;;;;;;;81.53;72.90;;;-4.60;82.60;;;;;;4994790;28;20051;-73
2021/12/26 07:53:07;;;;;;;102.90;92.03;;;-4.60;81.60;;;;;;5012944;28;20057;-73
2021/12/26 07:56:00;;;;;;;102.15;91.32;;;-4.70;82.20;;;;;;5013035;28;20054;-74
2021/12/26 07:58:46;;;;;;;102.25;91.32;;;-4.70;82.50;;;;;;5012211;28;20057;-73
2021/12/26 08:01:52;;;;;;;102.25;91.45;;;-4.60;82.70;;;;;;5030639;28;20156;-73
2021/12/26 08:04:38;;;;;;;102.68;91.78;;;-4.60;82.80;;;;;;5025773;28;20061;-73
2021/12/26 08:07:36;;;;;;;102.10;91.30;;;-4.60;82.60;;;;;;5011213;28;20050;-73
2021/12/26 08:10:05;;;;;;;104.55;93.63;;;-4.60;82.90;;;;;;4994298;28;20137;-73
2021/12/26 08:12:32;;;;;;;102.90;92.00;;;-4.60;83.10;;;;;;5011895;28;20054;-73
2021/12/26 08:15:01;;;;;;;103.30;92.30;;;-4.60;83.10;;;;;;4995349;28;20501;-73
2021/12/26 08:17:28;;;;;;;103.55;92.45;;;-4.60;82.50;;;;;;4995423;28;20250;-72
2021/12/26 08:19:56;;;;;;;102.57;91.73;;;-4.60;82.80;;;;;;5012071;28;20050;-73
2021/12/26 08:22:23;;;;;;;102.33;91.43;;;-4.60;83.10;;;;;;5010973;28;20124;-73
2021/12/26 08:24:50;;;;;;;103.32;92.47;;;-4.60;83.20;;;;;;5027556;28;20345;-73
2021/12/26 08:27:19;;;;;;;103.90;92.70;;;-4.60;83.20;;;;;;5011376;28;20129;-73
2021/12/26 08:29:47;;;;;;;103.85;92.85;;;-4.60;83.00;;;;;;5012959;28;20065;-72
2021/12/26 08:32:16;;;;;;;104.70;93.70;;;-4.60;83.20;;;;;;5006780;28;20078;-74
2021/12/26 08:34:44;;;;;;;104.60;93.55;;;-4.60;83.30;;;;;;4962195;28;23671;-72
2021/12/26 08:37:12;;;;;;;105.30;94.25;;;-4.60;83.60;;;;;;5011127;28;20078;-72
2021/12/26 08:39:40;;;;;;;;;;;-4.60;83.30;;;;;;5028556;28;20050;-73
2021/12/26 08:42:08;;;;;;;;;;;-4.60;83.50;;;;;;5011460;28;19930;-73
2021/12/26 08:44:36;;;;;;;;;;;-4.50;84.90;;;;;;5015784;28;19933;-73
2021/12/26 08:47:05;;;;;;;102.45;91.43;;;-4.50;84.30;;;;;;4997241;28;20008;-73
2021/12/26 08:49:32;;;;;;;103.30;92.15;;;-4.50;83.60;;;;;;5015871;28;20056;-72
2021/12/26 08:52:00;;;;;;;105.57;94.53;;;-4.40;83.50;;;;;;5013494;28;20050;-72
2021/12/26 08:54:29;;;;;;;;;;;-4.40;83.40;;;;;;5016102;28;20054;-72
2021/12/26 08:56:57;;;;;;;101.57;90.85;;;-4.40;83.40;;;;;;5014177;28;19993;-72
2021/12/26 08:59:24;;;;;;;104.10;92.97;;;-4.40;83.40;;;;;;4933753;28;20526;-73
2021/12/26 09:01:52;;;;;;;103.80;92.63;;;-4.40;83.20;;;;;;5014588;28;20153;-73
2021/12/26 09:04:20;;;;;;;103.50;92.25;;;-4.30;83.20;;;;;;5015680;28;20100;-73
2021/12/26 09:06:47;;;;;;;106.10;94.47;;;-4.30;83.20;;;;;;5012685;28;20417;-72
2021/12/26 09:09:13;;;;;;;106.53;92.03;;;-4.30;83.00;;;;;;5029928;28;20534;-72
2021/12/26 09:11:41;;;;;;;105.07;93.82;;;-4.20;82.70;;;;;;5014241;28;20050;-72
2021/12/26 09:14:08;;;;;;;104.25;93.05;;;-4.20;82.50;;;;;;5018129;28;20558;-71
2021/12/26 09:16:35;;;;;;;104.47;92.97;;;-4.20;83.00;;;;;;5015379;28;20132;-72
2021/12/26 09:19:08;;;;;;;104.80;92.87;;;-4.20;82.70;;;;;;5014243;28;20054;-72
2021/12/26 09:21:36;;;;;;;103.68;92.45;;;-4.10;82.80;;;;;;5014400;28;20093;-73
2021/12/26 09:24:04;;;;;;;102.88;91.90;;;-4.10;83.40;;;;;;5013390;28;20517;-73
2021/12/26 09:26:31;;;;;;;103.05;91.95;;;-4.00;83.30;;;;;;5016365;28;20089;-73
2021/12/26 09:28:59;;;;;;;103.95;93.03;;;-4.00;82.70;;;;;;5014951;28;20054;-72
2021/12/26 09:31:26;;;;;;;103.30;92.28;;;-4.00;82.90;;;;;;5015041;28;20039;-73
2021/12/26 09:33:53;;;;;;;104.28;93.18;;;-3.90;83.80;;;;;;5014754;28;20056;-72
2021/12/26 09:36:22;;;;;;;103.32;92.22;;;-3.80;83.00;;;;;;5015310;28;20117;-72
2021/12/26 09:38:49;;;;;;;104.63;93.38;;;-3.80;83.00;;;;;;5012833;28;20047;-73
2021/12/26 09:41:16;;;;;;;104.07;93.00;;;-3.70;82.80;;;;;;5015848;28;20053;-73
2021/12/26 09:43:43;;;;;;;104.27;93.23;;;-3.70;82.10;;;;;;5011379;28;20054;-73
2021/12/26 09:46:10;;;;;;;104.07;92.88;;;-3.60;82.60;;;;;;5013812;28;20333;-72
2021/12/26 09:48:38;;;;;;;106.63;95.30;;;-3.50;81.80;;;;;;5030201;28;20054;-72
2021/12/26 09:51:05;;;;;;;105.25;93.95;;;-3.50;81.80;;;;;;5014459;28;20042;-72
2021/12/26 09:53:38;;;;;;;104.97;93.07;;;-3.40;82.00;;;;;;5014435;28;20082;-72
2021/12/26 09:56:07;;;;;;;105.20;94.20;;;-3.40;83.20;;;;;;5014401;28;20205;-72
2021/12/26 09:58:34;;;;;;;105.93;94.32;;;-3.30;82.60;;;;;;5015059;28;20062;-73
2021/12/26 10:01:02;;;;;;;105.10;93.80;;;-3.20;82.30;;;;;;5013859;28;20053;-73
2021/12/26 10:03:33;;;;;;;106.18;94.50;;;-3.20;85.60;;;;;;5013974;28;20141;-73
2021/12/26 10:06:05;;;;;;;104.85;93.38;;;-3.10;85.80;;;;;;5013208;28;20133;-73
2021/12/26 10:08:36;;;;;;;107.15;95.47;;;-3.00;84.00;;;;;;5013402;28;20129;-73
2021/12/26 10:11:11;;;;;;;106.82;95.38;;;-2.90;84.20;;;;;;5012911;28;20050;-73
2021/12/26 10:13:40;;;;;;;106.45;94.82;;;-2.80;83.30;;;;;;5026889;28;20055;-73
2021/12/26 10:16:07;;;;;;;106.80;95.30;;;-2.80;82.80;;;;;;5014532;28;20058;-73
2021/12/26 10:18:39;;;;;;;107.30;95.80;;;-2.70;83.20;;;;;;5014533;28;20065;-72
2021/12/26 10:21:22;;;;;;;107.18;95.90;;;-2.70;83.00;;;;;;5012031;28;20047;-73
2021/12/26 10:23:49;;;;;;;109.57;97.82;;;-2.60;83.00;;;;;;5003819;28;20137;-73
2021/12/26 10:26:21;;;;;;;108.32;96.47;;;-2.50;84.10;;;;;;5013797;28;20994;-73
2021/12/26 10:29:04;;;;;;;108.40;96.57;;;-2.50;83.70;;;;;;5013033;28;20058;-73
2021/12/26 10:31:31;;;;;;;106.25;94.75;;;-2.40;84.60;;;;;;5010679;28;20141;-73
2021/12/26 10:33:58;;;;;;;110.33;94.50;;;-2.30;83.80;;;;;;5013439;28;20051;-73
2021/12/26 10:36:27;;;;;;;106.32;95.03;;;-2.30;83.00;;;;;;5012051;28;20054;-73
2021/12/26 10:39:12;;;;;;;108.22;95.47;;;-2.20;83.10;;;;;;5021007;28;20074;-72
2021/12/26 10:41:45;;;;;;;106.40;95.05;;;-2.10;83.60;;;;;;5012069;28;20526;-72
2021/12/26 10:44:31;;;;;;;108.55;96.95;;;-2.00;84.30;;;;;;5013558;28;20046;-73
2021/12/26 10:47:04;;;;;;;109.55;97.85;;;-1.90;83.50;;;;;;5012734;28;20060;-74
2021/12/26 10:49:38;;;;;;;106.00;94.75;;;-1.90;82.80;;;;;;5013506;28;20532;-73
2021/12/26 10:52:31;;;;;;;105.90;94.75;;;-1.80;82.30;;;;;;5026159;28;20491;-73
2021/12/26 10:55:01;;;;;;;105.47;94.20;;;-1.70;82.70;;;;;;5013446;28;20680;-73
2021/12/26 10:57:31;;;;;;;105.88;94.65;;;-1.70;83.30;;;;;;5012475;28;20058;-73
2021/12/26 11:00:04;;;;;;;108.63;96.63;;;-1.60;83.00;;;;;;5013816;28;20085;-73
2021/12/26 11:02:34;;;;;;;108.85;97.05;;;-1.50;84.60;;;;;;5013449;28;20084;-74
2021/12/26 11:05:04;;;;;;;107.10;95.80;;;-1.50;85.10;;;;;;5002369;28;20519;-73
2021/12/26 11:07:40;;;;;;;108.20;96.80;;;-1.40;83.70;;;;;;5014047;28;20058;-73
2021/12/26 11:10:11;;;;;;;108.57;96.90;;;-1.30;83.90;;;;;;4995164;28;20054;-72
2021/12/26 11:12:43;;;;;;;109.30;97.68;;;-1.20;83.30;;;;;;5013045;28;20147;-72
2021/12/26 11:15:12;;;;;;;107.50;96.07;;;-1.20;83.20;;;;;;5012364;28;20122;-73
2021/12/26 11:17:44;;;;;;;108.90;97.35;;;-1.10;84.20;;;;;;5013994;28;20054;-74
2021/12/26 11:20:26;;;;;;;111.28;99.75;;;-1.00;83.60;;;;;;5016560;28;20492;-74
2021/12/26 11:22:54;;;;;;;110.07;97.90;;;-0.90;83.50;;;;;;5019766;28;20093;-73
2021/12/26 11:25:21;;;;;;;108.57;97.30;;;-0.90;83.00;;;;;;5012583;28;20782;-74
2021/12/26 11:27:50;;;;;;;108.40;96.95;;;-0.80;83.40;;;;;;5013747;28;20050;-74
2021/12/26 11:30:18;;;;;;;109.07;97.63;;;-0.70;83.70;;;;;;5013887;28;20512;-74
2021/12/26 11:32:46;;;;;;;107.63;96.43;;;-0.70;84.50;;;;;;5012388;28;20055;-74
2021/12/26 11:35:13;;;;;;;107.60;96.40;;;-0.60;84.00;;;;;;5013023;28;20084;-74
2021/12/26 11:37:41;;;;;;;106.32;95.32;;;-0.50;83.60;;;;;;5028600;28;20042;-74
2021/12/26 11:40:35;;;;;;;105.75;94.82;;;-0.50;84.10;;;;;;5012133;28;20061;-74
2021/12/26 11:43:55;;;;;;;109.13;97.63;;;-0.30;85.80;;;;;;5023506;28;20164;-74
2021/12/26 11:46:58;;;;;;;107.13;95.90;;;-0.30;83.90;;;;;;5010630;28;20050;-74
2021/12/26 11:50:08;;;;;;;108.55;97.25;;;-0.20;83.80;;;;;;5028779;28;20060;-74
2021/12/26 11:53:21;;;;;;;107.50;96.15;;;-0.10;83.70;;;;;;5009129;28;20061;-74
2021/12/26 11:56:17;;;;;;;107.88;96.68;;;0.00;85.90;;;;;;4968283;28;20454;-74
2021/12/26 11:59:06;;;;;;;108.35;96.95;;;0.10;84.60;;;;;;4993534;28;20145;-74
2021/12/26 12:01:36;;;;;;;107.88;96.68;;;0.20;85.20;;;;;;5008297;28;20050;-73
2021/12/26 12:04:17;;;;;;;109.38;97.97;;;0.20;84.50;;;;;;5008627;28;20046;-74
2021/12/26 12:06:45;;;;;;;112.63;98.22;;;0.30;84.20;;;;;;5009153;28;20074;-76
2021/12/26 12:09:30;;;;;;;108.85;97.47;;;0.30;83.70;;;;;;4993776;28;20067;-75
2021/12/26 12:11:58;;;;;;;110.32;98.70;;;0.40;82.60;;;;;;4993805;28;20047;-73
2021/12/26 12:14:58;;;;;;;110.05;98.50;;;0.40;83.20;;;;;;5002314;28;20060;-73
2021/12/26 12:17:29;;;;;;;122.70;98.53;;;0.50;83.40;;;;;;5014521;28;20137;-75
2021/12/26 12:20:17;;;;;;;107.95;96.63;;;0.50;83.50;;;;;;5012263;28;20054;-73
2021/12/26 12:23:16;;;;;;;109.95;98.38;;;0.60;86.00;;;;;;5024327;28;20129;-73
2021/12/26 12:25:49;;;;;;;108.82;97.53;;;0.70;85.90;;;;;;5012081;28;20587;-73
2021/12/26 12:28:19;;;;;;;109.65;98.35;;;0.70;86.90;;;;;;5011396;28;20042;-73
2021/12/26 12:30:48;;;;;;;109.13;97.75;;;0.80;86.90;;;;;;5015564;28;20057;-73
2021/12/26 12:33:21;;;;;;;107.88;96.78;;;0.90;85.00;;;;;;5011900;28;20101;-74
2021/12/26 12:35:56;;;;;;;108.22;97.15;;;1.00;84.40;;;;;;5011960;28;20074;-73
2021/12/26 12:38:30;;;;;;;107.60;96.50;;;1.00;83.50;;;;;;5010840;28;20053;-74
2021/12/26 12:40:58;;;;;;;112.57;101.18;;;1.00;83.00;;;;;;5014837;28;20039;-75
2021/12/26 12:43:27;;;;;;;107.72;96.75;;;1.00;82.70;;;;;;5010315;28;20133;-73
2021/12/26 12:46:06;;;;;;;108.18;96.80;;;0.90;82.40;;;;;;5011473;28;20133;-73